Time;durP1;ratioP1;P1;durP2;ratioP2;P2;SDS_P1;SDS_P2;PMS_P1;PMS_P2;Temp;Humidity;BMP_temperature;BMP_pressure;BME280_temperature;BME280_humidity;BME280_pressure;Samples;Min_cycle;Max_cycle;Signal;HPM_P1;HPM_P2
2022/12/22 03:27:29;;;;;;;2.92;2.15;;;;;;;4.59;100.00;95840.63;5071182;28;20094;-78
2022/12/22 03:29:56;;;;;;;2.65;1.98;;;;;;;4.64;100.00;95843.25;5071767;28;20558;-78
2022/12/22 03:32:24;;;;;;;3.00;1.92;;;;;;;4.64;100.00;95848.66;5070957;28;20052;-78
2022/12/22 03:34:50;;;;;;;3.10;1.98;;;;;;;4.64;100.00;95843.25;5071122;28;20044;-79
2022/12/22 03:37:16;;;;;;;4.03;2.00;;;;;;;4.69;100.00;95840.47;5071365;28;20040;-79
2022/12/22 03:39:43;;;;;;;2.75;1.90;;;;;;;4.63;100.00;95844.34;5070602;28;20053;-78
2022/12/22 03:47:41;;;;;;;3.40;2.00;;;;;;;4.72;100.00;95842.59;5070833;28;20599;-78
2022/12/22 03:50:08;;;;;;;5.10;2.15;;;;;;;4.71;100.00;95843.72;5070240;28;20634;-78
2022/12/22 03:52:34;;;;;;;4.25;1.95;;;;;;;4.73;100.00;95841.50;5070923;28;20040;-79
2022/12/22 03:55:01;;;;;;;2.78;1.63;;;;;;;4.75;100.00;95838.50;5070429;28;20506;-79
2022/12/22 03:57:27;;;;;;;3.70;1.90;;;;;;;4.71;100.00;95835.63;5062293;28;20037;-78
2022/12/22 03:59:54;;;;;;;3.50;1.90;;;;;;;4.66;100.00;95839.19;5054232;28;20041;-78
2022/12/22 04:02:20;;;;;;;4.88;1.77;;;;;;;4.67;100.00;95842.69;5051081;28;20044;-78
2022/12/22 04:04:48;;;;;;;2.13;1.48;;;;;;;4.66;100.00;95841.09;5050554;28;20052;-79
2022/12/22 04:07:14;;;;;;;2.67;1.63;;;;;;;4.66;100.00;95839.19;5051074;28;20041;-79
2022/12/22 04:12:53;;;;;;;2.65;1.65;;;;;;;4.66;100.00;95852.66;5051053;28;20045;-78
2022/12/22 04:15:11;;;;;;;5.05;2.30;;;;;;;4.97;100.00;95844.91;5064910;28;20082;-78
2022/12/22 04:17:38;;;;;;;3.95;1.88;;;;;;;4.97;100.00;95850.31;5070876;28;20045;-78
2022/12/22 04:20:07;;;;;;;3.20;1.67;;;;;;;4.97;100.00;95847.59;5070405;28;20048;-78
2022/12/22 04:22:34;;;;;;;3.95;2.28;;;;;;;4.99;100.00;95847.31;5070695;28;20057;-78
2022/12/22 04:25:02;;;;;;;2.63;1.70;;;;;;;5.02;100.00;95843.22;5071027;28;20052;-78
2022/12/22 04:27:30;;;;;;;2.90;1.92;;;;;;;5.02;100.00;95837.84;5070140;28;20049;-79
2022/12/22 04:29:57;;;;;;;2.85;1.55;;;;;;;5.07;100.00;95835.06;5072271;28;20187;-77
2022/12/22 04:32:23;;;;;;;3.10;1.50;;;;;;;5.13;100.00;95828.47;5071243;28;20052;-79
2022/12/22 04:34:50;;;;;;;3.40;1.42;;;;;;;5.07;100.00;95829.66;5072082;28;20433;-78
2022/12/22 04:37:18;;;;;;;4.28;1.63;;;;;;;5.13;100.00;95823.06;5070077;28;20446;-79
2022/12/22 04:39:44;;;;;;;2.28;1.50;;;;;;;5.12;100.00;95830.38;5073972;28;20478;-78
2022/12/22 04:42:11;;;;;;;5.63;1.67;;;;;;;5.10;100.00;95818.25;5078072;28;20051;-78
2022/12/22 04:44:37;;;;;;;5.80;1.85;;;;;;;5.08;100.00;95821.25;5079401;28;20515;-79
2022/12/22 04:47:04;;;;;;;3.65;1.58;;;;;;;5.07;100.00;95818.88;5079186;28;20040;-78
2022/12/22 04:49:30;;;;;;;3.65;1.60;;;;;;;5.06;100.00;95814.53;5075559;28;20048;-78
2022/12/22 04:51:57;;;;;;;1.98;1.40;;;;;;;5.06;100.00;95811.84;5079732;28;20040;-79
2022/12/22 04:54:24;;;;;;;3.00;1.65;;;;;;;5.06;100.00;95815.34;5072321;28;20047;-79
2022/12/22 04:56:53;;;;;;;3.17;1.83;;;;;;;5.09;100.00;95811.25;5069847;28;20040;-82
2022/12/22 04:59:19;;;;;;;3.25;1.30;;;;;;;5.04;100.00;95814.03;5069513;28;20048;-79
2022/12/22 05:01:45;;;;;;;3.25;1.58;;;;;;;5.03;100.00;95801.66;5070426;28;20223;-79
2022/12/22 05:04:12;;;;;;;2.35;1.70;;;;;;;5.09;100.00;95803.16;5069745;28;20123;-78
2022/12/22 05:06:39;;;;;;;7.28;1.45;;;;;;;5.12;100.00;95802.59;5069710;28;20041;-79
2022/12/22 05:09:05;;;;;;;2.80;1.30;;;;;;;5.17;100.00;95807.91;5069203;28;20037;-79
2022/12/22 05:11:33;;;;;;;2.67;1.20;;;;;;;5.24;100.00;95797.50;5069921;28;20079;-78
2022/12/22 05:13:59;;;;;;;2.47;1.30;;;;;;;5.35;100.00;95798.13;5070256;28;20051;-79
2022/12/22 05:16:26;;;;;;;3.13;1.52;;;;;;;5.37;100.00;95795.91;5069676;28;20059;-79
2022/12/22 05:18:52;;;;;;;2.33;1.40;;;;;;;5.43;100.00;95790.13;5069734;28;20044;-78
2022/12/22 05:21:21;;;;;;;2.97;1.30;;;;;;;5.40;100.00;95784.53;5069614;28;20051;-78
2022/12/22 05:23:48;;;;;;;2.15;1.35;;;;;;;5.42;100.00;95780.41;5069940;28;20049;-79
2022/12/22 05:26:15;;;;;;;1.50;1.10;;;;;;;5.40;100.00;95779.94;5070867;28;20040;-78
2022/12/22 05:28:45;;;;;;;2.35;1.23;;;;;;;5.44;100.00;95774.72;5070853;28;20052;-79
2022/12/22 05:31:16;;;;;;;3.50;1.35;;;;;;;5.58;100.00;95758.53;5071071;28;20049;-79
2022/12/22 05:33:44;;;;;;;1.88;1.17;;;;;;;5.73;100.00;95760.91;5072976;28;20067;-79
2022/12/22 05:36:10;;;;;;;4.65;1.27;;;;;;;5.76;100.00;95765.72;5070790;28;20037;-79
2022/12/22 05:38:37;;;;;;;3.17;1.08;;;;;;;5.83;100.00;95760.72;5070661;28;20446;-79
2022/12/22 05:41:03;;;;;;;2.72;1.15;;;;;;;5.93;100.00;95765.94;5070648;28;20431;-78
2022/12/22 05:43:30;;;;;;;2.38;1.05;;;;;;;6.01;100.00;95767.13;5073350;28;20040;-78
2022/12/22 05:46:01;;;;;;;3.80;1.35;;;;;;;6.02;100.00;95774.13;5072763;28;20052;-79
2022/12/22 05:48:28;;;;;;;1.52;0.90;;;;;;;5.97;100.00;95772.34;5074794;28;20040;-78
2022/12/22 05:50:54;;;;;;;1.67;1.00;;;;;;;5.97;100.00;95777.75;5077412;28;20044;-83
2022/12/22 05:53:21;;;;;;;1.98;1.00;;;;;;;5.93;100.00;95765.94;5079309;28;20044;-79
2022/12/22 05:55:47;;;;;;;3.13;1.30;;;;;;;5.96;100.00;95775.34;5079606;28;20044;-78
2022/12/22 05:58:14;;;;;;;5.90;1.10;;;;;;;5.86;100.00;95786.34;5080376;28;20040;-79
2022/12/22 06:00:40;;;;;;;2.50;1.15;;;;;;;5.88;100.00;95790.31;5081586;28;20049;-79
2022/12/22 06:03:08;;;;;;;3.17;1.15;;;;;;;5.83;100.00;95793.13;5081605;28;20049;-79
2022/12/22 06:05:35;;;;;;;1.85;1.15;;;;;;;5.76;100.00;95788.13;5080956;28;20044;-78
2022/12/22 06:08:01;;;;;;;1.98;1.17;;;;;;;5.73;100.00;95787.94;5081216;28;20044;-78
2022/12/22 06:10:27;;;;;;;4.97;1.33;;;;;;;5.61;100.00;95780.34;5064171;28;20049;-78
2022/12/22 06:12:54;;;;;;;3.22;1.20;;;;;;;5.57;100.00;95778.53;5057558;28;20045;-78
2022/12/22 06:15:20;;;;;;;2.20;1.30;;;;;;;5.64;100.00;95766.25;5052269;28;20052;-78
2022/12/22 06:17:47;;;;;;;3.63;1.52;;;;;;;5.52;100.00;95765.13;5053535;28;20045;-79
2022/12/22 06:20:15;;;;;;;3.78;1.33;;;;;;;5.62;100.00;95754.13;5052259;28;20045;-78
2022/12/22 06:22:41;;;;;;;4.13;1.92;;;;;;;5.62;100.00;95759.53;5052600;28;20057;-78
2022/12/22 06:25:09;;;;;;;2.17;1.27;;;;;;;5.58;100.00;95761.22;5051913;28;20041;-79
2022/12/22 06:27:35;;;;;;;5.30;1.50;;;;;;;5.50;100.00;95758.13;5052290;28;20041;-76
2022/12/22 06:30:02;;;;;;;7.75;2.72;;;;;;;5.56;100.00;95755.34;5054244;28;20048;-79
2022/12/22 06:32:28;;;;;;;2.90;1.40;;;;;;;5.57;100.00;95759.63;5054703;28;20051;-79
2022/12/22 06:34:55;;;;;;;4.85;1.23;;;;;;;5.57;100.00;95762.31;5055211;28;20052;-79
2022/12/22 06:37:23;;;;;;;3.03;1.20;;;;;;;5.52;100.00;95743.53;5054316;28;20048;-79
2022/12/22 06:39:49;;;;;;;3.20;0.90;;;;;;;5.44;100.00;95756.63;5053708;28;20044;-80
2022/12/22 06:45:00;;;;;;;3.72;1.30;;;;;;;5.40;100.00;95769.13;5052926;28;20102;-79
2022/12/22 06:47:26;;;;;;;3.78;1.13;;;;;;;5.37;100.00;95764.31;5069181;28;20045;-80
2022/12/22 06:49:53;;;;;;;1.40;0.80;;;;;;;5.46;100.00;95767.91;5060664;28;20045;-80
2022/12/22 06:52:19;;;;;;;5.75;1.10;;;;;;;5.69;100.00;95776.13;5068033;28;20044;-78
2022/12/22 06:54:47;;;;;;;2.55;0.70;;;;;;;5.99;99.90;95770.13;5062985;28;20049;-79
2022/12/22 06:57:13;;;;;;;1.48;0.82;;;;;;;6.13;97.65;95775.53;5062257;28;20041;-79
2022/12/22 06:59:40;;;;;;;1.45;0.80;;;;;;;6.14;97.26;95773.63;5060815;28;20103;-79
2022/12/22 07:02:07;;;;;;;2.15;0.75;;;;;;;6.27;96.48;95775.50;5058717;28;20044;-77
2022/12/22 07:04:33;;;;;;;2.22;0.90;;;;;;;6.31;95.28;95771.06;5057337;28;20052;-77
2022/12/22 07:06:59;;;;;;;1.60;1.00;;;;;;;6.29;95.72;95770.56;5054526;28;20048;-76
2022/12/22 07:09:26;;;;;;;4.18;1.20;;;;;;;6.33;95.96;95778.88;5050476;28;20053;-78
2022/12/22 07:11:54;;;;;;;3.42;1.02;;;;;;;6.19;96.24;95768.88;5050416;28;20064;-77
2022/12/22 07:14:20;;;;;;;6.47;1.10;;;;;;;6.07;96.36;95775.94;5053737;28;20052;-80
2022/12/22 07:16:48;;;;;;;1.65;0.80;;;;;;;6.07;96.30;95775.94;5060752;28;20071;-77
2022/12/22 07:19:14;;;;;;;3.90;1.13;;;;;;;6.09;95.75;95779.13;5049644;28;20056;-77
2022/12/22 07:21:41;;;;;;;2.30;0.95;;;;;;;6.09;95.58;95773.72;5049441;28;20060;-77
2022/12/22 07:24:08;;;;;;;4.38;0.93;;;;;;;6.16;94.70;95774.09;5048359;28;20067;-78
2022/12/22 07:26:34;;;;;;;1.98;0.90;;;;;;;6.29;93.69;95762.47;5048720;28;20530;-78
2022/12/22 07:29:02;;;;;;;1.80;0.80;;;;;;;6.29;92.84;95757.06;5050079;28;20041;-78
2022/12/22 07:31:28;;;;;;;2.05;0.80;;;;;;;6.25;93.01;95759.56;5068469;28;20044;-78
2022/12/22 07:33:55;;;;;;;3.40;0.90;;;;;;;6.32;92.87;95763.75;5069068;28;20040;-78
2022/12/22 07:36:21;;;;;;;2.33;0.80;;;;;;;6.70;89.40;95767.72;5068320;28;20048;-78
2022/12/22 07:38:50;;;;;;;2.00;1.10;;;;;;;6.82;88.36;95759.06;5068419;28;20058;-78
2022/12/22 07:44:05;;;;;;;1.92;0.65;;;;;;;6.84;86.67;95762.25;5061325;28;20054;-78
2022/12/22 07:46:34;;;;;;;2.92;0.70;;;;;;;7.10;85.26;95757.00;5067635;28;20484;-78
2022/12/22 07:51:44;;;;;;;2.50;0.70;;;;;;;7.44;82.81;95772.63;5061305;28;20060;-79
2022/12/22 07:54:13;;;;;;;5.03;0.77;;;;;;;7.54;82.27;95758.00;5050785;28;20040;-79
2022/12/22 07:56:40;;;;;;;1.70;0.70;;;;;;;7.66;81.81;95760.91;5068230;28;20056;-78
2022/12/22 07:59:09;;;;;;;3.45;0.70;;;;;;;7.66;81.79;95765.53;5068104;28;20106;-78
2022/12/22 08:01:35;;;;;;;2.15;0.88;;;;;;;7.68;81.53;95766.84;5068183;28;20049;-79
2022/12/22 08:04:02;;;;;;;5.07;0.73;;;;;;;7.78;81.00;95766.56;5067674;28;20049;-78
2022/12/22 08:06:28;;;;;;;4.88;0.90;;;;;;;7.80;81.67;95755.38;5058838;28;20048;-78
2022/12/22 08:08:55;;;;;;;2.42;0.75;;;;;;;7.86;81.10;95754.13;5060280;28;20511;-78
2022/12/22 08:11:21;;;;;;;2.72;0.70;;;;;;;8.07;80.58;95757.03;5066036;28;20048;-78
2022/12/22 08:13:48;;;;;;;1.83;0.77;;;;;;;8.57;77.25;95752.03;5067276;28;20048;-78
2022/12/22 08:16:18;;;;;;;2.28;0.93;;;;;;;8.86;76.44;95753.28;5066634;28;20045;-78
2022/12/22 08:18:44;;;;;;;4.72;1.63;;;;;;;8.71;75.96;95756.47;5067409;28;20044;-78
2022/12/22 08:21:11;;;;;;;2.83;0.90;;;;;;;8.58;76.41;95750.91;5068109;28;20051;-76
2022/12/22 08:23:38;;;;;;;4.10;1.45;;;;;;;8.37;77.62;95749.94;5068121;28;20056;-78
2022/12/22 08:26:09;;;;;;;3.75;1.20;;;;;;;8.30;77.60;95757.72;5066987;28;20040;-78
2022/12/22 08:28:41;;;;;;;2.65;1.40;;;;;;;8.16;77.98;95757.06;5067663;28;20675;-78
2022/12/22 08:31:08;;;;;;;2.55;0.95;;;;;;;8.09;79.19;95763.75;5066949;28;20063;-77
2022/12/22 08:33:36;;;;;;;5.70;1.48;;;;;;;7.87;79.24;95755.72;5066725;28;20562;-78
2022/12/22 08:36:03;;;;;;;3.22;1.02;;;;;;;7.78;80.09;95758.44;5068869;28;20043;-78
2022/12/22 08:38:30;;;;;;;7.63;2.65;;;;;;;7.69;80.41;95748.66;5065537;28;20046;-78
2022/12/22 08:40:58;;;;;;;2.13;1.17;;;;;;;7.74;80.60;95738.47;5058043;28;20128;-78
2022/12/22 08:43:28;;;;;;;2.13;0.95;;;;;;;7.85;79.89;95738.97;5049656;28;20049;-78
2022/12/22 08:45:54;;;;;;;4.05;1.20;;;;;;;8.04;78.56;95744.13;5041964;28;20033;-79
2022/12/22 08:48:21;;;;;;;3.72;1.05;;;;;;;8.13;77.86;95741.41;5068466;28;20048;-78
2022/12/22 08:50:49;;;;;;;3.45;1.15;;;;;;;8.24;76.53;95754.34;5069721;28;20044;-78
2022/12/22 08:53:15;;;;;;;2.15;0.73;;;;;;;8.39;75.92;95747.69;5069566;28;20051;-79
2022/12/22 08:55:41;;;;;;;4.25;1.05;;;;;;;8.51;74.10;95757.91;5069975;28;20059;-78
2022/12/22 08:58:08;;;;;;;4.00;0.95;;;;;;;8.58;73.71;95752.81;5069103;28;20458;-78
2022/12/22 09:00:34;;;;;;;2.28;0.85;;;;;;;8.59;73.77;95755.22;5069671;28;20045;-78
2022/12/22 09:03:01;;;;;;;2.38;0.95;;;;;;;8.56;73.54;95761.28;5068988;28;20044;-78
2022/12/22 09:05:27;;;;;;;2.58;0.75;;;;;;;8.43;74.12;95762.22;5068770;28;20040;-78
2022/12/22 09:07:55;;;;;;;4.53;0.82;;;;;;;8.43;74.20;95758.72;5068114;28;20040;-78
2022/12/22 09:10:22;;;;;;;4.28;1.20;;;;;;;8.40;73.49;95759.34;5068964;28;20056;-79
2022/12/22 09:12:50;;;;;;;2.78;0.73;;;;;;;8.40;73.45;95762.84;5069132;28;20052;-78
2022/12/22 09:15:17;;;;;;;1.75;0.80;;;;;;;8.54;72.07;95774.38;5069029;28;20045;-78
2022/12/22 09:17:43;;;;;;;4.15;1.33;;;;;;;8.58;71.66;95779.97;5069266;28;20072;-78
2022/12/22 09:20:10;;;;;;;3.22;1.10;;;;;;;8.71;71.04;95781.69;5068992;28;20583;-79
2022/12/22 09:22:37;;;;;;;3.13;0.93;;;;;;;8.98;68.96;95780.59;5069991;28;20052;-79
2022/12/22 09:25:06;;;;;;;7.38;1.27;;;;;;;9.01;68.55;95771.78;5072804;28;20048;-78
2022/12/22 09:27:33;;;;;;;5.97;0.90;;;;;;;9.04;69.58;95786.66;5073384;28;20044;-79
2022/12/22 09:29:59;;;;;;;2.95;1.00;;;;;;;8.96;68.79;95774.66;5073120;28;20056;-79
2022/12/22 09:32:27;;;;;;;6.38;1.27;;;;;;;8.80;69.68;95781.72;5072627;28;20408;-78
2022/12/22 09:34:54;;;;;;;5.20;0.93;;;;;;;8.81;70.11;95788.72;5065409;28;20052;-78
2022/12/22 09:37:20;;;;;;;7.70;1.00;;;;;;;8.73;69.85;95798.50;5072911;28;20051;-76
2022/12/22 09:39:48;;;;;;;4.45;1.10;;;;;;;8.67;70.26;95788.91;5073035;28;20044;-79
2022/12/22 09:42:20;;;;;;;5.10;1.02;;;;;;;8.69;70.38;95791.28;5072692;28;20052;-78
2022/12/22 09:44:50;;;;;;;2.72;0.93;;;;;;;8.65;69.80;95790.34;5055303;28;20504;-79
2022/12/22 09:47:23;;;;;;;5.85;1.30;;;;;;;8.70;70.13;95807.25;5072777;28;20047;-79
2022/12/22 09:49:53;;;;;;;2.67;0.90;;;;;;;8.45;72.28;95818.88;5073032;28;20051;-78
2022/12/22 09:52:25;;;;;;;6.07;0.80;;;;;;;7.98;77.10;95803.09;5072541;28;20102;-79
2022/12/22 09:54:51;;;;;;;4.20;0.80;;;;;;;7.73;79.05;95790.28;5072850;28;20071;-79
2022/12/22 09:57:19;;;;;;;3.42;0.88;;;;;;;7.76;79.85;95792.34;5072398;28;20412;-77
2022/12/22 09:59:46;;;;;;;6.75;0.93;;;;;;;8.11;77.83;95772.38;5072700;28;20044;-78
2022/12/22 10:02:25;;;;;;;2.65;0.80;;;;;;;8.13;78.11;95773.97;5072391;28;20041;-78
2022/12/22 10:05:01;;;;;;;4.28;0.80;;;;;;;8.36;77.49;95779.00;5072343;28;20041;-78
2022/12/22 10:07:32;;;;;;;2.58;1.20;;;;;;;8.62;76.42;95779.00;5072285;28;20048;-78
2022/12/22 10:10:04;;;;;;;6.22;1.00;;;;;;;8.58;76.75;95764.47;5072182;28;20036;-78
2022/12/22 10:12:33;;;;;;;1.52;0.70;;;;;;;8.52;77.56;95765.75;5071852;28;20048;-79
2022/12/22 10:15:00;;;;;;;3.17;0.90;;;;;;;8.48;78.05;95764.78;5073170;28;20093;-77
2022/12/22 10:17:28;;;;;;;2.60;0.90;;;;;;;8.51;78.04;95752.47;5072800;28;20052;-78
2022/12/22 10:20:20;;;;;;;6.10;1.08;;;;;;;8.44;78.82;95749.47;5065125;28;20147;-78
2022/12/22 10:22:49;;;;;;;3.13;0.80;;;;;;;8.38;79.25;95748.03;5072909;28;20064;-76
2022/12/22 10:25:34;;;;;;;5.63;1.00;;;;;;;8.48;79.68;95753.94;5072178;28;20047;-78
2022/12/22 10:28:06;;;;;;;4.65;1.00;;;;;;;8.62;78.69;95734.78;5065833;28;20048;-78
2022/12/22 10:30:36;;;;;;;1.63;0.70;;;;;;;8.66;79.06;95743.06;5072580;28;20036;-78
2022/12/22 10:33:06;;;;;;;2.90;0.88;;;;;;;8.62;78.72;95732.06;5072019;28;20044;-78
2022/12/22 10:35:57;;;;;;;5.70;0.85;;;;;;;8.63;77.89;95745.31;5072217;28;20078;-79
2022/12/22 10:38:27;;;;;;;4.47;1.20;;;;;;;8.66;77.40;95732.22;5061062;28;20044;-78
2022/12/22 10:40:57;;;;;;;4.90;1.20;;;;;;;8.83;75.50;95738.44;5072270;28;20051;-77
2022/12/22 10:43:27;;;;;;;2.28;0.85;;;;;;;8.95;73.79;95731.53;5071852;28;20045;-78
2022/12/22 10:45:56;;;;;;;5.85;1.45;;;;;;;9.07;73.16;95727.03;5072194;28;20484;-78
2022/12/22 10:48:28;;;;;;;4.95;1.00;;;;;;;9.18;71.70;95719.34;5071929;28;20040;-79
2022/12/22 10:50:55;;;;;;;6.07;1.08;;;;;;;9.29;71.27;95711.63;5064532;28;20483;-77
2022/12/22 10:53:22;;;;;;;4.30;0.90;;;;;;;9.36;71.11;95701.06;5073027;28;20052;-78
2022/12/22 10:56:05;;;;;;;2.63;0.75;;;;;;;9.33;71.10;95707.94;5072462;28;20041;-77
2022/12/22 10:58:49;;;;;;;3.78;1.08;;;;;;;9.34;71.55;95716.88;5072319;28;20040;-78
2022/12/22 11:01:25;;;;;;;3.78;0.80;;;;;;;9.38;70.27;95705.03;5072094;28;20036;-78
2022/12/22 11:03:54;;;;;;;5.40;1.00;;;;;;;9.22;71.13;95731.16;5072265;28;20528;-78
2022/12/22 11:06:21;;;;;;;2.97;1.10;;;;;;;9.10;71.87;95718.25;5072515;28;20041;-78
2022/12/22 11:08:47;;;;;;;4.03;0.80;;;;;;;9.06;73.12;95706.44;5073509;28;22141;-78
2022/12/22 11:11:24;;;;;;;3.42;0.80;;;;;;;9.09;72.19;95707.72;5072389;28;20044;-78
2022/12/22 11:14:00;;;;;;;4.95;1.08;;;;;;;9.30;70.74;95718.69;5074030;28;20083;-78
2022/12/22 11:16:31;;;;;;;5.68;1.33;;;;;;;9.50;69.38;95701.66;5073455;28;21254;-78
2022/12/22 11:19:11;;;;;;;4.18;0.90;;;;;;;9.54;69.14;95702.59;5065847;28;20048;-77
2022/12/22 11:21:45;;;;;;;4.28;1.00;;;;;;;9.59;68.87;95693.44;5074502;28;20040;-78
2022/12/22 11:24:25;;;;;;;2.50;1.05;;;;;;;9.67;68.49;95689.91;5073329;28;20049;-78
2022/12/22 11:27:03;;;;;;;4.38;0.90;;;;;;;9.78;67.65;95701.19;5073573;28;20048;-77
2022/12/22 11:29:52;;;;;;;5.78;1.20;;;;;;;9.84;67.19;95708.84;5071172;28;20095;-79
2022/12/22 11:32:33;;;;;;;3.67;0.82;;;;;;;9.86;66.50;95703.06;5070836;28;20068;-79
2022/12/22 11:35:13;;;;;;;3.53;0.93;;;;;;;9.84;66.58;95716.19;5064214;28;20052;-78
2022/12/22 11:37:47;;;;;;;7.07;1.60;;;;;;;9.74;67.24;95738.31;5071333;28;20047;-78
2022/12/22 11:40:25;;;;;;;7.18;0.82;;;;;;;9.33;71.37;95747.91;5065615;28;20488;-79
2022/12/22 11:43:08;;;;;;;5.10;1.00;;;;;;;8.98;74.56;95726.28;5071476;28;20048;-79
2022/12/22 11:45:51;;;;;;;4.85;1.13;;;;;;;8.52;79.65;95737.81;5070807;28;20048;-78
2022/12/22 11:48:41;;;;;;;3.17;1.17;;;;;;;8.05;85.29;95740.31;5072097;28;20041;-80
2022/12/22 11:51:18;;;;;;;4.82;1.45;;;;;;;7.66;89.83;95731.09;5066265;28;20039;-79
2022/12/22 11:54:03;;;;;;;6.55;1.52;;;;;;;7.42;93.41;95723.41;5073988;28;20048;-80
2022/12/22 11:56:35;;;;;;;5.88;1.27;;;;;;;7.27;96.07;95729.22;5071816;28;20047;-79
2022/12/22 11:59:27;;;;;;;6.00;1.10;;;;;;;7.04;99.58;95731.94;5072218;28;20048;-80
2022/12/22 12:02:13;;;;;;;4.80;0.80;;;;;;;6.89;100.00;95726.97;5071663;28;20040;-78
2022/12/22 12:05:14;;;;;;;4.32;1.33;;;;;;;6.90;100.00;95700.69;5071787;28;20060;-78
2022/12/22 12:07:45;;;;;;;5.78;1.40;;;;;;;6.75;100.00;95685.63;5070472;28;20056;-78
2022/12/22 12:10:17;;;;;;;5.03;0.95;;;;;;;6.76;100.00;95679.13;5064940;28;20044;-79
2022/12/22 12:12:53;;;;;;;17.00;5.32;;;;;;;6.74;100.00;95681.34;5071252;28;20040;-78
2022/12/22 12:15:28;;;;;;;6.22;1.73;;;;;;;6.73;100.00;95668.91;5071339;28;20226;-78
2022/12/22 12:18:26;;;;;;;5.35;1.23;;;;;;;6.78;100.00;95666.06;5071647;28;20048;-78
2022/12/22 12:21:07;;;;;;;7.20;1.88;;;;;;;6.84;100.00;95659.44;5070631;28;20045;-78
2022/12/22 12:23:55;;;;;;;5.47;1.40;;;;;;;7.00;100.00;95663.31;5070942;28;20081;-78
2022/12/22 12:26:27;;;;;;;7.68;1.20;;;;;;;7.06;100.00;95667.50;5070188;28;20059;-78
2022/12/22 12:29:09;;;;;;;10.68;1.60;;;;;;;7.13;100.00;95661.63;5071490;28;20064;-79
2022/12/22 12:31:42;;;;;;;6.20;1.50;;;;;;;7.17;100.00;95650.97;5071391;28;20040;-79
2022/12/22 12:34:15;;;;;;;5.10;1.05;;;;;;;7.09;100.00;95643.59;5071157;28;20040;-79
2022/12/22 12:36:48;;;;;;;9.57;1.42;;;;;;;7.13;99.51;95650.00;5070976;28;20059;-79
2022/12/22 12:39:20;;;;;;;9.55;1.60;;;;;;;7.21;99.07;95641.13;5070177;28;20043;-79
2022/12/22 12:41:55;;;;;;;6.40;1.40;;;;;;;7.35;97.28;95649.09;5070664;28;20071;-79
2022/12/22 12:44:25;;;;;;;5.22;1.27;;;;;;;7.54;94.21;95655.84;5069923;28;20083;-78
2022/12/22 12:47:07;;;;;;;9.07;1.75;;;;;;;7.69;93.81;95651.09;5069837;28;20121;-78
2022/12/22 12:50:25;;;;;;;6.15;1.20;;;;;;;7.92;90.25;95655.28;5070148;28;20043;-78
2022/12/22 12:53:08;;;;;;;7.38;1.35;;;;;;;8.00;89.01;95657.19;5070106;28;20040;-78
2022/12/22 12:56:05;;;;;;;7.57;1.38;;;;;;;8.13;87.66;95666.28;5070299;28;20041;-79
2022/12/22 12:58:54;;;;;;;6.40;1.73;;;;;;;8.23;86.38;95654.31;5069447;28;20040;-79
2022/12/22 13:01:55;;;;;;;5.57;1.30;;;;;;;8.39;84.38;95651.94;5070445;28;20052;-78
2022/12/22 13:05:08;;;;;;;7.35;1.15;;;;;;;8.50;83.36;95662.16;5066093;28;20064;-79
2022/12/22 13:08:14;;;;;;;9.70;1.45;;;;;;;8.50;83.37;95648.56;5067528;28;20043;-78
2022/12/22 13:11:22;;;;;;;7.18;1.27;;;;;;;8.58;82.80;95653.22;5068533;28;20051;-80
2022/12/22 13:13:51;;;;;;;7.10;1.45;;;;;;;8.73;81.46;95656.53;5047563;28;20036;-78
2022/12/22 13:16:24;;;;;;;8.50;2.05;;;;;;;8.86;79.83;95659.03;5069650;28;20041;-78
2022/12/22 13:18:51;;;;;;;8.43;1.60;;;;;;;8.91;79.56;95665.44;5070459;28;20052;-79
2022/12/22 13:21:24;;;;;;;8.73;1.85;;;;;;;8.98;78.73;95671.16;5070089;28;20041;-79
2022/12/22 13:24:01;;;;;;;5.72;1.55;;;;;;;8.98;78.17;95669.25;5070051;28;20405;-78
2022/12/22 13:26:31;;;;;;;7.95;1.40;;;;;;;9.03;78.01;95677.22;5070006;28;20048;-79
2022/12/22 13:28:59;;;;;;;8.57;1.60;;;;;;;9.15;76.32;95663.75;5070227;28;20094;-78
2022/12/22 13:31:35;;;;;;;6.68;1.63;;;;;;;9.26;74.84;95682.41;5069494;28;20045;-78
2022/12/22 13:34:07;;;;;;;5.05;1.40;;;;;;;9.29;74.53;95668.16;5063337;28;20040;-78
2022/12/22 13:36:34;;;;;;;7.03;1.15;;;;;;;9.33;73.82;95674.53;5070107;28;20466;-79
2022/12/22 13:39:04;;;;;;;7.60;1.20;;;;;;;9.30;73.29;95665.13;5070542;28;20057;-79
2022/12/22 13:41:33;;;;;;;12.68;1.98;;;;;;;9.33;73.92;95671.81;5053052;28;20072;-79
2022/12/22 13:44:04;;;;;;;4.78;1.23;;;;;;;9.28;74.49;95675.50;5053265;28;20041;-79
2022/12/22 13:46:33;;;;;;;5.25;1.13;;;;;;;9.35;74.08;95672.31;5066839;28;20051;-79
2022/12/22 13:49:03;;;;;;;7.45;0.90;;;;;;;9.37;72.94;95659.19;5073253;28;20052;-77
2022/12/22 13:51:34;;;;;;;5.70;1.40;;;;;;;9.36;73.09;95671.19;5073156;28;20045;-78
2022/12/22 13:54:04;;;;;;;6.93;1.80;;;;;;;9.47;71.64;95668.91;5065942;28;20483;-78
2022/12/22 13:56:37;;;;;;;7.60;1.27;;;;;;;9.41;71.96;95665.56;5063356;28;20037;-78
2022/12/22 13:59:04;;;;;;;7.32;1.63;;;;;;;9.47;71.51;95672.41;5053629;28;20041;-78
2022/12/22 14:01:30;;;;;;;6.45;1.60;;;;;;;9.49;71.14;95672.88;5054599;28;20048;-78
2022/12/22 14:04:01;;;;;;;8.15;1.50;;;;;;;9.58;70.54;95670.91;5055436;28;20041;-77
2022/12/22 14:06:30;;;;;;;8.82;1.70;;;;;;;9.56;71.13;95673.16;5070335;28;20049;-78
2022/12/22 14:09:12;;;;;;;7.40;1.67;;;;;;;9.49;71.54;95672.06;5057340;28;20056;-78
2022/12/22 14:11:38;;;;;;;9.13;2.25;;;;;;;9.56;70.23;95677.81;5079751;28;20083;-79
2022/12/22 14:14:07;;;;;;;7.38;1.80;;;;;;;9.64;69.90;95677.75;5077964;28;20557;-78
2022/12/22 14:16:33;;;;;;;5.38;1.08;;;;;;;9.55;71.17;95677.03;5077882;28;20045;-77
2022/12/22 14:19:01;;;;;;;7.45;1.35;;;;;;;9.70;70.19;95678.34;5076891;28;20043;-78
2022/12/22 14:21:27;;;;;;;10.02;2.33;;;;;;;9.69;69.64;95674.03;5077530;28;20557;-77
2022/12/22 14:23:54;;;;;;;9.35;1.60;;;;;;;9.67;70.03;95690.69;5069612;28;20048;-77
2022/12/22 14:26:28;;;;;;;10.60;1.40;;;;;;;9.68;70.35;95686.06;5075355;28;20041;-77
2022/12/22 14:28:57;;;;;;;5.45;1.55;;;;;;;9.64;70.22;95677.75;5069240;28;20041;-78
2022/12/22 14:31:24;;;;;;;5.03;1.20;;;;;;;9.58;71.17;95681.78;5076400;28;20048;-78
2022/12/22 14:33:53;;;;;;;4.95;1.45;;;;;;;9.58;70.30;95681.78;5073805;28;20044;-78
2022/12/22 14:36:22;;;;;;;8.63;1.85;;;;;;;9.61;70.16;95696.66;5075644;28;20040;-78
2022/12/22 14:38:50;;;;;;;7.90;1.80;;;;;;;9.61;70.48;95685.78;5075236;28;20040;-78
2022/12/22 14:41:45;;;;;;;9.25;1.52;;;;;;;9.59;70.53;95688.81;5075395;28;20094;-80
2022/12/22 14:44:16;;;;;;;10.45;1.90;;;;;;;9.55;70.63;95674.31;5075184;28;20041;-78
2022/12/22 14:46:44;;;;;;;10.85;2.05;;;;;;;9.50;70.68;95693.50;5075013;28;20049;-79
2022/12/22 14:49:19;;;;;;;8.77;1.90;;;;;;;9.57;69.90;95691.06;5075631;28;20045;-78
2022/12/22 14:51:54;;;;;;;8.23;2.05;;;;;;;9.56;70.41;95685.97;5075712;28;20079;-78
2022/12/22 14:54:27;;;;;;;9.43;1.75;;;;;;;9.61;69.59;95694.72;5075977;28;20123;-77
2022/12/22 14:57:01;;;;;;;8.95;2.22;;;;;;;9.53;70.13;95698.28;5077104;28;20033;-79
2022/12/22 14:59:30;;;;;;;9.45;1.92;;;;;;;9.76;68.04;95704.25;5075223;28;20059;-78
2022/12/22 15:01:58;;;;;;;7.05;2.25;;;;;;;9.72;68.87;95686.19;5074755;28;20484;-78
2022/12/22 15:04:25;;;;;;;10.02;2.25;;;;;;;9.62;69.21;95696.31;5076299;28;20041;-78
2022/12/22 15:06:51;;;;;;;6.80;1.52;;;;;;;9.60;69.39;95690.41;5077036;28;20071;-79
2022/12/22 15:09:28;;;;;;;11.93;2.15;;;;;;;9.64;68.85;95680.47;5077592;28;20413;-79
2022/12/22 15:12:04;;;;;;;9.93;2.17;;;;;;;9.68;69.46;95697.72;5077129;28;20045;-78
2022/12/22 15:14:34;;;;;;;10.50;2.00;;;;;;;9.53;70.32;95697.47;5076578;28;20037;-79
2022/12/22 15:17:01;;;;;;;10.43;1.92;;;;;;;9.53;69.89;95695.56;5076805;28;20044;-79
2022/12/22 15:19:30;;;;;;;14.18;2.50;;;;;;;9.70;68.87;95699.31;5054631;28;20051;-78
2022/12/22 15:21:56;;;;;;;9.45;2.20;;;;;;;9.62;69.16;95698.25;5053339;28;20037;-78
2022/12/22 15:24:23;;;;;;;11.30;2.20;;;;;;;9.70;68.89;95708.25;5051975;28;20045;-78
2022/12/22 15:26:50;;;;;;;14.48;2.55;;;;;;;9.66;68.84;95699.97;5051941;28;20404;-79
2022/12/22 15:29:18;;;;;;;12.63;2.03;;;;;;;9.71;68.96;95731.63;5051046;28;20041;-79
2022/12/22 15:31:45;;;;;;;8.18;2.15;;;;;;;9.70;68.82;95704.75;5051505;28;20167;-79
2022/12/22 15:34:16;;;;;;;11.30;2.60;;;;;;;9.60;69.74;95717.56;5051235;28;20140;-78
2022/12/22 15:36:42;;;;;;;10.60;2.35;;;;;;;9.62;69.66;95720.00;5051623;28;20496;-79
2022/12/22 15:39:14;;;;;;;9.15;1.73;;;;;;;9.60;69.91;95717.56;5051119;28;20044;-79